Marlow, New Hampshire
Current Conditions -  °F | °C
As of 10:35 AM on Saturday 22 Nov 2014 (Local Time) from KEEN Reporting Station
Clear Clear  
Wind Chill: 20°   Ceiling: Unl
Heat Index: 28°   Visibility: 10mi
Dew Point: 12°   Wind: 8mph
Humidity: 51%   Direction: 210°SSW
Pressure: 30.29"   Gusts: NA
Location:  43.12°N, 72.2°W
Report Text: KEEN 221535Z AUTO 21007KT 10SM CLR M02/M11 A3029 RMK AO1
Loading
Personal Weather Stations






























Interactive Weather Map New forecast layout! Learn more

10-Day Weather Forecast

Advertisements
Track Severe Weather on mobile